createdAt,value
2022-12-03T00:00:15.784Z,50.38
2022-12-03T00:02:42.331Z,47.28
2022-12-03T00:05:09.851Z,43.10
2022-12-03T00:07:36.374Z,46.97
2022-12-03T00:10:03.210Z,50.63
2022-12-03T00:12:29.591Z,51.17
2022-12-03T00:14:56.240Z,51.95
2022-12-03T00:17:22.850Z,44.15
2022-12-03T00:19:49.231Z,51.10
2022-12-03T00:22:15.654Z,55.97
2022-12-03T00:24:42.040Z,47.58
2022-12-03T00:27:08.422Z,51.50
2022-12-03T00:29:34.830Z,48.83
2022-12-03T00:32:01.235Z,56.28
2022-12-03T00:34:27.632Z,44.00
2022-12-03T00:36:54.037Z,49.22
2022-12-03T00:39:20.430Z,50.47
2022-12-03T00:41:46.895Z,55.25
2022-12-03T00:44:13.706Z,51.17
2022-12-03T00:46:40.222Z,50.63
2022-12-03T00:49:06.656Z,52.85
2022-12-03T00:51:33.157Z,48.42
2022-12-03T00:53:59.546Z,47.35
2022-12-03T00:56:25.944Z,50.08
2022-12-03T00:58:52.345Z,51.83
2022-12-03T01:01:18.892Z,51.88
2022-12-03T01:03:45.537Z,54.13
2022-12-03T01:06:11.955Z,52.65
2022-12-03T01:08:38.330Z,62.83
2022-12-03T01:11:24.942Z,50.47
2022-12-03T01:13:51.347Z,50.53
2022-12-03T01:16:17.820Z,56.72
2022-12-03T01:18:46.152Z,52.95
2022-12-03T01:21:12.791Z,54.30
2022-12-03T01:23:39.242Z,52.90
2022-12-03T01:26:05.680Z,57.45
2022-12-03T01:28:32.369Z,60.97
2022-12-03T01:31:17.630Z,60.30
2022-12-03T01:33:44.081Z,57.22
2022-12-03T01:36:10.502Z,54.97
2022-12-03T01:38:36.915Z,44.33
2022-12-03T01:41:07.246Z,55.55
2022-12-03T01:43:38.019Z,56.15
2022-12-03T01:46:04.537Z,64.93
2022-12-03T01:48:33.527Z,59.55
2022-12-03T01:50:59.927Z,58.65
2022-12-03T01:53:26.352Z,61.33
2022-12-03T01:55:52.763Z,59.63
2022-12-03T01:58:24.770Z,56.10
2022-12-03T02:00:51.224Z,65.03
2022-12-03T02:03:22.475Z,54.65
2022-12-03T02:05:49.066Z,62.33
2022-12-03T02:08:33.566Z,58.13
2022-12-03T02:11:04.735Z,61.92
2022-12-03T02:13:31.629Z,58.83
2022-12-03T02:15:58.152Z,61.78
2022-12-03T02:18:24.899Z,57.20
2022-12-03T02:21:16.622Z,56.25
2022-12-03T02:23:59.069Z,53.55
2022-12-03T02:26:25.649Z,58.92
2022-12-03T02:28:52.153Z,55.72
2022-12-03T02:31:18.603Z,60.60
2022-12-03T02:33:45.229Z,59.05
2022-12-03T02:36:11.857Z,60.05
2022-12-03T02:38:38.769Z,51.25
2022-12-03T02:41:08.111Z,60.42
2022-12-03T02:43:34.521Z,54.42
2022-12-03T02:46:02.535Z,56.53
2022-12-03T02:48:34.743Z,66.40
2022-12-03T02:51:05.587Z,54.05
2022-12-03T02:53:37.544Z,57.33
2022-12-03T02:56:05.191Z,64.28
2022-12-03T02:58:32.815Z,64.53
2022-12-03T03:01:00.255Z,61.47
2022-12-03T03:03:28.052Z,48.88
2022-12-03T03:05:56.695Z,66.47
2022-12-03T03:08:24.125Z,60.25
2022-12-03T03:10:50.650Z,62.53
2022-12-03T03:13:18.743Z,54.28
2022-12-03T03:15:45.612Z,53.35
2022-12-03T03:18:13.467Z,58.03
2022-12-03T03:20:40.047Z,61.78
2022-12-03T03:23:12.455Z,64.97
2022-12-03T03:25:40.089Z,60.63
2022-12-03T03:28:07.461Z,63.25
2022-12-03T03:30:35.760Z,58.88
2022-12-03T03:33:02.180Z,51.75
2022-12-03T03:35:28.585Z,48.47
2022-12-03T03:37:55.214Z,65.75
2022-12-03T03:40:22.041Z,58.55
2022-12-03T03:42:48.769Z,51.22
2022-12-03T03:45:15.473Z,53.10
2022-12-03T03:47:42.641Z,57.13
2022-12-03T03:50:10.998Z,62.63
2022-12-03T03:52:38.058Z,61.78
2022-12-03T03:55:04.985Z,60.08
2022-12-03T03:57:31.399Z,66.32
2022-12-03T03:59:58.921Z,67.60
2022-12-03T04:02:26.792Z,52.30
2022-12-03T04:04:53.804Z,48.17
2022-12-03T04:07:20.442Z,57.63
2022-12-03T04:09:46.896Z,52.47
2022-12-03T04:12:32.020Z,64.30
2022-12-03T04:14:58.792Z,59.83
2022-12-03T04:17:25.410Z,62.40
2022-12-03T04:19:51.805Z,66.43
2022-12-03T04:22:37.652Z,52.60
2022-12-03T04:25:23.127Z,71.38
2022-12-03T04:28:08.377Z,53.85
2022-12-03T04:30:34.808Z,65.97
2022-12-03T04:33:19.909Z,67.60
2022-12-03T04:35:46.490Z,60.53
2022-12-03T04:38:15.319Z,53.60
2022-12-03T04:41:00.776Z,59.13
2022-12-03T04:43:32.588Z,66.40
2022-12-03T04:45:59.422Z,56.60
2022-12-03T04:48:26.253Z,64.28
2022-12-03T04:50:52.970Z,56.95
2022-12-03T04:53:19.423Z,57.30
2022-12-03T04:55:45.916Z,61.55
2022-12-03T04:58:12.307Z,67.57
2022-12-03T05:00:38.858Z,57.97
2022-12-03T05:03:05.379Z,58.22
2022-12-03T05:05:31.897Z,62.55
2022-12-03T05:07:58.383Z,53.63
2022-12-03T05:10:24.848Z,53.53
2022-12-03T05:12:51.279Z,65.38
2022-12-03T05:15:17.765Z,67.50
2022-12-03T05:17:44.191Z,59.00
2022-12-03T05:20:29.955Z,59.72
2022-12-03T05:22:56.903Z,54.10
2022-12-03T05:25:23.330Z,59.78
2022-12-03T05:27:49.741Z,69.82
2022-12-03T05:30:16.371Z,61.60
2022-12-03T05:32:42.862Z,59.30
2022-12-03T05:35:10.112Z,56.63
2022-12-03T05:37:36.568Z,69.93
2022-12-03T05:40:03.283Z,68.45
2022-12-03T05:42:56.005Z,63.85
2022-12-03T05:45:48.855Z,54.47
2022-12-03T05:48:16.622Z,63.35
2022-12-03T05:50:44.548Z,59.78
2022-12-03T05:53:11.974Z,79.03
2022-12-03T05:55:38.723Z,61.95
2022-12-03T05:58:05.570Z,63.47
2022-12-03T06:00:42.106Z,62.03
2022-12-03T06:03:09.203Z,63.40
2022-12-03T06:05:35.766Z,56.40
2022-12-03T06:08:02.333Z,61.65
2022-12-03T06:10:29.766Z,52.17
2022-12-03T06:12:56.468Z,70.03
2022-12-03T06:15:23.095Z,62.50
2022-12-03T06:17:49.613Z,62.47
2022-12-03T06:20:18.091Z,68.07
2022-12-03T06:22:44.860Z,61.92
2022-12-03T06:25:11.904Z,56.90
2022-12-03T06:27:38.364Z,62.50
2022-12-03T06:30:06.151Z,57.10
2022-12-03T06:32:32.581Z,58.30
2022-12-03T06:34:58.961Z,60.33
2022-12-03T06:37:25.327Z,55.47
2022-12-03T06:39:51.725Z,62.30
2022-12-03T06:42:18.140Z,60.55
2022-12-03T06:44:44.540Z,68.50
2022-12-03T06:47:10.940Z,59.58
2022-12-03T06:49:37.355Z,57.75
2022-12-03T06:52:03.887Z,60.58
2022-12-03T06:54:30.319Z,56.85
2022-12-03T06:56:56.718Z,69.18
2022-12-03T06:59:23.591Z,62.20
2022-12-03T07:01:50.072Z,62.60
2022-12-03T07:04:16.512Z,60.92
2022-12-03T07:06:42.910Z,52.53
2022-12-03T07:09:09.421Z,59.15
2022-12-03T07:11:44.648Z,66.43
2022-12-03T07:14:11.479Z,56.20
2022-12-03T07:16:38.907Z,65.53
2022-12-03T07:19:06.271Z,62.65
2022-12-03T07:21:32.764Z,70.18
2022-12-03T07:23:59.193Z,70.10
2022-12-03T07:26:25.670Z,59.28
2022-12-03T07:28:52.148Z,60.25
2022-12-03T07:31:18.793Z,66.70
2022-12-03T07:33:45.524Z,61.00
2022-12-03T07:36:11.963Z,60.95
2022-12-03T07:38:38.464Z,53.83
2022-12-03T07:41:05.118Z,53.83
2022-12-03T07:43:31.540Z,58.60
2022-12-03T07:45:57.949Z,60.45
2022-12-03T07:48:24.369Z,55.60
2022-12-03T07:50:50.816Z,61.58
2022-12-03T07:53:17.257Z,55.75
2022-12-03T07:55:43.780Z,54.20
2022-12-03T07:58:10.206Z,60.33
2022-12-03T08:00:36.803Z,51.80
2022-12-03T08:03:03.236Z,57.97
2022-12-03T08:05:29.870Z,56.08
2022-12-03T08:07:56.568Z,68.82
2022-12-03T08:10:24.478Z,54.90
2022-12-03T08:12:50.904Z,61.90
2022-12-03T08:15:25.032Z,62.15
2022-12-03T08:17:56.601Z,69.80
2022-12-03T08:20:25.315Z,63.63
2022-12-03T08:22:53.003Z,62.08
2022-12-03T08:25:22.382Z,60.90
2022-12-03T08:27:48.991Z,60.55
2022-12-03T08:30:17.027Z,58.53
2022-12-03T08:32:44.075Z,57.97
2022-12-03T08:35:12.450Z,66.32
2022-12-03T08:37:38.825Z,64.38
2022-12-03T08:40:19.933Z,68.68
2022-12-03T08:45:40.355Z,57.65
2022-12-03T08:48:19.093Z,55.10
2022-12-03T08:50:45.586Z,57.60
2022-12-03T08:53:20.970Z,54.78
2022-12-03T08:55:51.586Z,62.00
2022-12-03T08:58:23.408Z,54.97
2022-12-03T09:00:53.432Z,67.45
2022-12-03T09:03:19.970Z,59.23
2022-12-03T09:05:46.386Z,62.97
2022-12-03T09:08:12.944Z,61.03
2022-12-03T09:10:39.480Z,63.75
2022-12-03T09:13:06.033Z,64.35
2022-12-03T09:15:32.494Z,60.60
2022-12-03T09:17:58.868Z,54.10
2022-12-03T09:20:25.266Z,62.80
2022-12-03T09:22:51.661Z,72.50
2022-12-03T09:25:18.071Z,64.00
2022-12-03T09:27:44.456Z,60.15
2022-12-03T09:30:11.221Z,67.88
2022-12-03T09:32:37.863Z,62.92
2022-12-03T09:35:04.879Z,71.80
2022-12-03T09:37:31.309Z,63.72
2022-12-03T09:39:57.703Z,67.72
2022-12-03T09:42:25.125Z,61.28
2022-12-03T09:44:52.430Z,70.18
2022-12-03T09:47:19.284Z,65.50
2022-12-03T09:49:45.805Z,60.35
2022-12-03T09:52:19.607Z,61.70
2022-12-03T09:54:47.642Z,63.95
2022-12-03T09:57:14.242Z,59.65
2022-12-03T09:59:40.749Z,66.50
2022-12-03T10:02:26.706Z,67.38
2022-12-03T10:04:53.493Z,63.88
2022-12-03T10:07:20.498Z,68.18
2022-12-03T10:09:48.873Z,66.72
2022-12-03T10:12:21.404Z,70.22
2022-12-03T10:14:47.777Z,75.00
2022-12-03T10:17:14.747Z,77.53
2022-12-03T10:19:42.690Z,71.53
2022-12-03T10:22:09.196Z,64.63
2022-12-03T10:24:36.640Z,76.88
2022-12-03T10:27:24.576Z,70.35
2022-12-03T10:29:58.653Z,60.35
2022-12-03T10:32:40.568Z,73.28
2022-12-03T10:35:19.935Z,76.10
2022-12-03T10:38:01.027Z,75.68
2022-12-03T10:43:20.934Z,70.78
2022-12-03T10:46:10.408Z,73.07
2022-12-03T10:48:36.903Z,73.30
2022-12-03T10:51:17.660Z,74.82
2022-12-03T10:53:44.133Z,65.72
2022-12-03T10:56:16.650Z,79.72
2022-12-03T10:58:43.202Z,62.45
2022-12-03T11:01:21.574Z,74.18
2022-12-03T11:03:49.009Z,72.18
2022-12-03T11:06:17.222Z,78.40
2022-12-03T11:08:45.599Z,70.32
2022-12-03T11:11:14.981Z,72.97
2022-12-03T11:13:41.284Z,78.40
2022-12-03T11:16:10.588Z,81.30
2022-12-03T11:18:36.986Z,69.95
2022-12-03T11:21:04.678Z,79.60
2022-12-03T11:23:46.374Z,72.70
2022-12-03T11:26:18.887Z,66.53
2022-12-03T11:28:46.002Z,74.25
2022-12-03T11:31:44.477Z,69.55
2022-12-03T11:34:20.364Z,76.68
2022-12-03T11:37:11.799Z,62.83
2022-12-03T11:39:50.654Z,72.32
2022-12-03T11:42:26.216Z,68.80
2022-12-03T11:45:05.224Z,58.70
2022-12-03T11:47:38.528Z,72.28
2022-12-03T11:50:22.978Z,64.72
2022-12-03T11:52:56.961Z,72.53
2022-12-03T11:55:33.066Z,61.75
2022-12-03T11:58:04.788Z,65.85
2022-12-03T12:00:31.254Z,67.13
2022-12-03T12:02:58.740Z,53.03
2022-12-03T12:05:32.144Z,69.35
2022-12-03T12:08:00.817Z,55.88
2022-12-03T12:10:47.861Z,53.53
2022-12-03T12:13:35.881Z,67.18
2022-12-03T12:16:07.066Z,60.50
2022-12-03T12:18:37.648Z,69.75
2022-12-03T12:21:47.476Z,70.50
2022-12-03T12:24:45.752Z,71.95
2022-12-03T12:27:15.200Z,69.95
2022-12-03T12:29:45.693Z,71.15
2022-12-03T12:32:17.379Z,70.05
2022-12-03T12:34:53.250Z,63.08
2022-12-03T12:37:31.840Z,73.88
2022-12-03T12:39:58.731Z,58.85
2022-12-03T12:42:32.673Z,69.72
2022-12-03T12:45:20.590Z,61.95
2022-12-03T12:48:01.722Z,65.22
2022-12-03T12:52:58.938Z,67.88
2022-12-03T12:55:25.466Z,51.20
2022-12-03T12:57:51.904Z,73.10
2022-12-03T13:00:21.187Z,76.97
2022-12-03T13:02:55.105Z,72.60
2022-12-03T13:05:21.861Z,81.05
2022-12-03T13:07:48.392Z,79.03
2022-12-03T13:10:28.159Z,75.25
2022-12-03T13:12:54.614Z,70.07
2022-12-03T13:15:45.242Z,60.22
2022-12-03T13:18:20.348Z,70.43
2022-12-03T13:20:47.119Z,77.43
2022-12-03T13:23:39.837Z,73.10
2022-12-03T13:26:30.529Z,76.72
2022-12-03T13:29:07.330Z,66.75
2022-12-03T13:34:01.924Z,64.10
2022-12-03T13:36:37.936Z,65.80
2022-12-03T13:39:22.800Z,53.83
2022-12-03T13:42:07.766Z,70.75
2022-12-03T13:44:34.655Z,63.70
2022-12-03T13:47:03.070Z,73.65
2022-12-03T13:49:30.230Z,78.40
2022-12-03T13:51:56.609Z,71.93
2022-12-03T13:54:26.549Z,77.05
2022-12-03T13:56:52.987Z,74.15
2022-12-03T13:59:25.827Z,69.43
2022-12-03T14:01:52.757Z,65.15
2022-12-03T14:04:19.185Z,68.68
2022-12-03T14:06:45.573Z,71.35
2022-12-03T14:09:11.964Z,70.00
2022-12-03T14:11:57.050Z,70.47
2022-12-03T14:14:23.466Z,75.32
2022-12-03T14:16:52.158Z,70.28
2022-12-03T14:19:20.720Z,64.90
2022-12-03T14:21:47.124Z,70.43
2022-12-03T14:24:13.551Z,67.40
2022-12-03T14:26:39.980Z,72.70
2022-12-03T14:29:08.951Z,65.43
2022-12-03T14:31:35.744Z,74.63
2022-12-03T14:34:02.264Z,68.35
2022-12-03T14:36:28.670Z,59.90
2022-12-03T14:38:55.090Z,66.22
2022-12-03T14:41:40.245Z,70.53
2022-12-03T14:44:06.620Z,69.53
2022-12-03T14:46:33.065Z,76.68
2022-12-03T14:48:59.495Z,68.47
2022-12-03T14:51:25.893Z,70.55
2022-12-03T14:53:52.286Z,70.57
2022-12-03T14:56:18.922Z,63.88
2022-12-03T14:58:45.381Z,57.70
2022-12-03T15:01:11.889Z,78.30
2022-12-03T15:03:38.376Z,66.25
2022-12-03T15:06:04.979Z,66.95
2022-12-03T15:08:31.398Z,71.70
2022-12-03T15:10:57.802Z,56.28
2022-12-03T15:13:24.164Z,74.50
2022-12-03T15:15:50.633Z,64.63
2022-12-03T15:18:17.133Z,69.05
2022-12-03T15:20:43.581Z,66.43
2022-12-03T15:23:14.213Z,66.72
2022-12-03T15:25:41.280Z,67.57
2022-12-03T15:28:07.831Z,64.40
2022-12-03T15:30:37.163Z,72.50
2022-12-03T15:33:03.651Z,72.18
2022-12-03T15:35:30.573Z,70.88
2022-12-03T15:37:57.158Z,70.93
2022-12-03T15:40:24.527Z,71.50
2022-12-03T15:42:51.011Z,62.67
2022-12-03T15:45:17.455Z,69.15
2022-12-03T15:47:43.919Z,71.78
2022-12-03T15:50:10.685Z,64.22
2022-12-03T15:52:37.045Z,70.57
2022-12-03T15:55:03.652Z,62.38
2022-12-03T15:57:31.049Z,62.72
2022-12-03T15:59:57.740Z,68.32
2022-12-03T16:02:24.541Z,75.13
2022-12-03T16:04:51.073Z,65.80
2022-12-03T16:07:17.458Z,67.50
2022-12-03T16:09:43.969Z,66.10
2022-12-03T16:12:10.341Z,74.65
2022-12-03T16:14:36.712Z,62.67
2022-12-03T16:17:03.125Z,68.28
2022-12-03T16:19:29.555Z,55.03
2022-12-03T16:21:55.921Z,66.75
2022-12-03T16:24:22.320Z,63.15
2022-12-03T16:26:48.704Z,59.35
2022-12-03T16:29:15.086Z,57.95
2022-12-03T16:31:41.590Z,73.78
2022-12-03T16:34:08.036Z,69.10
2022-12-03T16:36:34.438Z,71.50
2022-12-03T16:39:00.872Z,71.60
2022-12-03T16:41:27.235Z,54.33
2022-12-03T16:43:53.776Z,67.32
2022-12-03T16:46:21.076Z,71.03
2022-12-03T16:48:48.055Z,63.72
2022-12-03T16:51:14.890Z,54.60
2022-12-03T16:53:41.403Z,50.53
2022-12-03T16:56:08.001Z,67.60
2022-12-03T16:58:34.428Z,53.35
2022-12-03T17:01:00.919Z,56.00
2022-12-03T17:03:33.392Z,56.20
2022-12-03T17:06:00.436Z,54.92
2022-12-03T17:08:27.012Z,58.70
2022-12-03T17:10:53.559Z,60.30
2022-12-03T17:13:20.199Z,63.58
2022-12-03T17:15:46.723Z,64.22
2022-12-03T17:18:13.164Z,61.50
2022-12-03T17:20:39.602Z,67.70
2022-12-03T17:23:06.218Z,61.40
2022-12-03T17:25:32.606Z,58.95
2022-12-03T17:27:59.048Z,56.25
2022-12-03T17:30:25.448Z,53.20
2022-12-03T17:32:51.865Z,61.65
2022-12-03T17:35:18.975Z,64.78
2022-12-03T17:37:45.629Z,61.15
2022-12-03T17:40:15.122Z,53.03
2022-12-03T17:42:41.523Z,65.13
2022-12-03T17:45:08.291Z,71.97
2022-12-03T17:47:34.687Z,69.88
2022-12-03T17:50:01.074Z,65.32
2022-12-03T17:52:27.483Z,65.05
2022-12-03T17:55:12.218Z,64.03
2022-12-03T17:57:42.608Z,56.95
2022-12-03T18:00:09.599Z,60.47
2022-12-03T18:02:35.997Z,61.03
2022-12-03T18:05:02.393Z,61.00
2022-12-03T18:07:28.863Z,52.55
2022-12-03T18:09:55.693Z,65.47
2022-12-03T18:12:22.544Z,68.80
2022-12-03T18:14:48.966Z,65.18
2022-12-03T18:17:15.364Z,63.47
2022-12-03T18:19:41.754Z,73.93
2022-12-03T18:22:08.304Z,70.93
2022-12-03T18:24:34.888Z,68.70
2022-12-03T18:27:01.328Z,67.72
2022-12-03T18:29:27.741Z,72.25
2022-12-03T18:31:54.221Z,65.80
2022-12-03T18:34:20.749Z,68.72
2022-12-03T18:36:48.746Z,64.15
2022-12-03T18:39:35.350Z,72.13
2022-12-03T18:42:02.012Z,68.70
2022-12-03T18:44:29.066Z,62.33
2022-12-03T18:46:57.433Z,73.55
2022-12-03T18:49:24.059Z,66.30
2022-12-03T18:51:54.503Z,71.43
2022-12-03T18:54:25.248Z,71.97
2022-12-03T18:56:51.626Z,51.47
2022-12-03T18:59:18.231Z,78.13
2022-12-03T19:01:44.968Z,76.97
2022-12-03T19:04:11.465Z,70.25
2022-12-03T19:06:37.840Z,68.60
2022-12-03T19:09:04.357Z,73.03
2022-12-03T19:11:30.771Z,72.40
2022-12-03T19:13:58.944Z,75.78
2022-12-03T19:16:25.655Z,64.43
2022-12-03T19:18:53.832Z,65.78
2022-12-03T19:21:20.196Z,70.90
2022-12-03T19:24:16.110Z,70.15
2022-12-03T19:26:33.181Z,79.85
2022-12-03T19:28:59.936Z,66.72
2022-12-03T19:31:26.584Z,67.13
2022-12-03T19:33:54.226Z,80.80
2022-12-03T19:36:29.258Z,76.30
2022-12-03T19:38:57.769Z,79.35
2022-12-03T19:41:30.386Z,80.40
2022-12-03T19:43:57.734Z,73.93
2022-12-03T19:46:26.028Z,81.07
2022-12-03T19:48:53.709Z,72.35
2022-12-03T19:51:34.079Z,66.53
2022-12-03T19:54:01.566Z,74.25
2022-12-03T19:56:30.125Z,71.57
2022-12-03T19:58:57.437Z,76.88
2022-12-03T20:01:26.370Z,80.28
2022-12-03T20:03:54.450Z,75.53
2022-12-03T20:06:24.137Z,78.25
2022-12-03T20:08:51.587Z,84.03
2022-12-03T20:11:24.433Z,81.88
2022-12-03T20:13:56.033Z,70.50
2022-12-03T20:16:23.012Z,76.22
2022-12-03T20:18:50.572Z,72.05
2022-12-03T20:21:18.475Z,77.47
2022-12-03T20:23:45.963Z,83.82
2022-12-03T20:26:15.405Z,83.63
2022-12-03T20:28:41.891Z,84.22
2022-12-03T20:31:13.104Z,74.68
2022-12-03T20:33:43.060Z,76.18
2022-12-03T20:36:10.801Z,76.35
2022-12-03T20:38:37.659Z,84.60
2022-12-03T20:41:07.610Z,79.80
2022-12-03T20:43:34.485Z,81.80
2022-12-03T20:46:11.144Z,87.68
2022-12-03T20:48:37.918Z,93.53
2022-12-03T20:51:06.159Z,75.25
2022-12-03T20:53:33.257Z,82.13
2022-12-03T20:56:00.381Z,74.85
2022-12-03T20:58:27.139Z,85.45
2022-12-03T21:00:53.692Z,76.38
2022-12-03T21:03:20.352Z,83.22
2022-12-03T21:05:47.603Z,82.65
2022-12-03T21:08:14.104Z,79.45
2022-12-03T21:10:47.277Z,80.05
2022-12-03T21:13:15.001Z,92.30
2022-12-03T21:15:45.101Z,87.85
2022-12-03T21:18:14.271Z,89.70
2022-12-03T21:20:42.624Z,92.30
2022-12-03T21:23:09.525Z,81.22
2022-12-03T21:25:37.062Z,80.97
2022-12-03T21:28:05.021Z,84.82
2022-12-03T21:30:32.039Z,89.43
2022-12-03T21:32:58.711Z,91.78
2022-12-03T21:35:25.508Z,84.78
2022-12-03T21:37:51.892Z,69.65
2022-12-03T21:40:19.264Z,94.25
2022-12-03T21:42:45.719Z,94.28
2022-12-03T21:45:12.107Z,92.60
2022-12-03T21:47:38.600Z,89.63
2022-12-03T21:50:06.727Z,91.13
2022-12-03T21:52:34.446Z,91.53
2022-12-03T21:55:00.934Z,77.57
2022-12-03T21:57:27.451Z,82.07
2022-12-03T21:59:55.588Z,79.80
2022-12-03T22:02:22.425Z,94.63
2022-12-03T22:04:50.212Z,85.35
2022-12-03T22:07:16.875Z,68.63
2022-12-03T22:09:43.262Z,105.93
2022-12-03T22:12:09.661Z,98.10
2022-12-03T22:14:36.204Z,82.55
2022-12-03T22:17:02.595Z,78.45
2022-12-03T22:19:29.037Z,89.53
2022-12-03T22:21:55.559Z,81.85
2022-12-03T22:24:23.603Z,84.20
2022-12-03T22:26:50.072Z,83.30
2022-12-03T22:29:16.616Z,92.10
2022-12-03T22:31:43.018Z,89.95
2022-12-03T22:34:09.453Z,83.10
2022-12-03T22:36:35.867Z,81.55
2022-12-03T22:39:02.478Z,88.07
2022-12-03T22:41:28.955Z,88.72
2022-12-03T22:43:55.326Z,91.35
2022-12-03T22:46:21.806Z,93.63
2022-12-03T22:48:48.382Z,81.03
2022-12-03T22:51:18.563Z,89.72
2022-12-03T22:53:45.291Z,94.47
2022-12-03T22:56:11.812Z,80.50
2022-12-03T22:58:39.021Z,95.65
2022-12-03T23:01:06.236Z,86.13
2022-12-03T23:03:32.908Z,87.68
2022-12-03T23:05:59.351Z,84.55
2022-12-03T23:08:25.742Z,88.57
2022-12-03T23:10:53.388Z,92.97
2022-12-03T23:13:20.535Z,83.63
2022-12-03T23:15:51.965Z,84.85
2022-12-03T23:18:19.351Z,82.38
2022-12-03T23:20:48.144Z,106.30
2022-12-03T23:23:15.074Z,86.10
2022-12-03T23:25:41.728Z,84.97
2022-12-03T23:28:08.403Z,93.05
2022-12-03T23:30:36.428Z,91.70
2022-12-03T23:33:04.070Z,88.72
2022-12-03T23:35:31.150Z,82.13
2022-12-03T23:37:57.619Z,92.32
2022-12-03T23:40:24.101Z,87.50
2022-12-03T23:42:50.533Z,91.85
2022-12-03T23:45:17.007Z,92.50
2022-12-03T23:47:43.436Z,79.90
2022-12-03T23:50:11.009Z,89.53
2022-12-03T23:52:37.561Z,92.82
2022-12-03T23:55:04.157Z,91.65
2022-12-03T23:57:30.534Z,84.07
2022-12-03T23:59:57.230Z,97.85
